createdAt,value
2022-08-02T00:02:10.267Z,28.21
2022-08-02T00:07:12.530Z,28.16
2022-08-02T00:12:14.709Z,28.23
2022-08-02T00:17:16.870Z,28.20
2022-08-02T00:22:18.789Z,28.19
2022-08-02T00:27:20.771Z,28.24
2022-08-02T00:32:23.683Z,28.17
2022-08-02T00:37:25.958Z,28.20
2022-08-02T00:42:28.342Z,28.14
2022-08-02T00:47:30.475Z,28.15
2022-08-02T00:52:32.578Z,28.15
2022-08-02T00:57:34.603Z,28.16
2022-08-02T01:02:36.705Z,28.17
2022-08-02T01:07:38.583Z,28.17
2022-08-02T01:12:40.510Z,28.14
2022-08-02T01:17:54.726Z,28.14
2022-08-02T01:23:18.061Z,28.17
2022-08-02T01:28:23.024Z,28.17
2022-08-02T01:33:30.629Z,28.14
2022-08-02T01:38:40.496Z,28.15
2022-08-02T01:43:44.071Z,28.17
2022-08-02T01:48:48.054Z,28.14
2022-08-02T01:53:51.797Z,28.13
2022-08-02T01:58:55.322Z,28.13
2022-08-02T02:03:58.021Z,28.11
2022-08-02T02:09:00.895Z,28.13
2022-08-02T02:14:04.375Z,28.08
2022-08-02T02:19:07.916Z,28.11
2022-08-02T02:24:11.839Z,28.15
2022-08-02T02:29:15.156Z,28.15
2022-08-02T02:34:33.995Z,28.05
2022-08-02T02:39:37.990Z,28.11
2022-08-02T02:44:40.909Z,28.10
2022-08-02T02:49:45.399Z,28.07
2022-08-02T02:54:50.981Z,28.08
2022-08-02T02:59:54.528Z,28.11
2022-08-02T03:04:58.142Z,28.08
2022-08-02T03:10:01.106Z,28.10
2022-08-02T03:15:07.767Z,28.03
2022-08-02T03:20:12.208Z,28.10
2022-08-02T03:25:15.198Z,28.09
2022-08-02T03:30:17.161Z,28.03
2022-08-02T03:35:24.193Z,28.02
2022-08-02T03:40:28.647Z,28.05
2022-08-02T03:45:30.994Z,28.04
2022-08-02T03:50:33.959Z,28.02
2022-08-02T03:55:36.274Z,28.06
2022-08-02T04:00:38.627Z,28.02
2022-08-02T04:06:03.585Z,27.98
2022-08-02T04:11:21.151Z,28.01
2022-08-02T04:16:29.284Z,27.94
2022-08-02T04:21:48.970Z,28.02
2022-08-02T04:27:06.503Z,27.97
2022-08-02T04:32:09.939Z,28.03
2022-08-02T04:37:13.955Z,27.98
2022-08-02T04:42:23.652Z,27.92
2022-08-02T04:47:54.472Z,27.93
2022-08-02T04:52:47.783Z,27.86
2022-08-02T04:57:55.712Z,27.91
2022-08-02T05:02:58.150Z,27.96
2022-08-02T05:08:00.833Z,27.98
2022-08-02T05:13:04.914Z,27.95
2022-08-02T05:18:06.882Z,28.00
2022-08-02T05:23:08.897Z,27.98
2022-08-02T05:28:11.704Z,27.94
2022-08-02T05:33:13.825Z,27.96
2022-08-02T05:38:15.774Z,27.82
2022-08-02T05:43:18.039Z,27.92
2022-08-02T05:48:26.516Z,28.01
2022-08-02T05:53:41.752Z,27.88
2022-08-02T05:59:12.359Z,27.88
2022-08-02T06:04:26.059Z,27.95
2022-08-02T06:09:28.626Z,28.02
2022-08-02T06:14:34.292Z,28.07
2022-08-02T06:19:51.386Z,28.06
2022-08-02T06:24:55.276Z,28.03
2022-08-02T06:29:58.161Z,28.03
2022-08-02T06:35:00.370Z,28.12
2022-08-02T06:40:15.229Z,28.13
2022-08-02T06:45:17.332Z,28.13
2022-08-02T06:50:19.300Z,28.14
2022-08-02T06:55:21.186Z,28.13
2022-08-02T07:00:23.604Z,28.14
2022-08-02T07:05:25.679Z,28.11
2022-08-02T07:10:28.001Z,28.09
2022-08-02T07:15:29.876Z,28.06
2022-08-02T07:20:32.211Z,28.06
2022-08-02T07:26:02.375Z,28.04
2022-08-02T07:30:56.053Z,27.96
2022-08-02T07:35:58.871Z,27.71
2022-08-02T07:41:03.435Z,27.95
2022-08-02T07:46:05.842Z,28.05
2022-08-02T07:51:07.515Z,28.12
2022-08-02T07:56:09.282Z,28.08
2022-08-02T08:01:11.082Z,27.92
2022-08-02T08:06:12.927Z,27.95
2022-08-02T08:11:14.795Z,27.90
2022-08-02T08:16:16.938Z,27.95
2022-08-02T08:21:18.658Z,28.08
2022-08-02T08:26:20.423Z,28.08
2022-08-02T08:31:22.169Z,28.05
2022-08-02T08:36:24.034Z,28.14
2022-08-02T08:41:25.964Z,28.17
2022-08-02T08:46:34.958Z,28.06
2022-08-02T08:51:43.928Z,28.01
2022-08-02T08:56:49.661Z,27.96
2022-08-02T09:01:52.934Z,27.98
2022-08-02T09:06:55.935Z,28.04
2022-08-02T09:12:14.733Z,28.14
2022-08-02T09:17:17.084Z,28.24
2022-08-02T09:22:19.065Z,28.16
2022-08-02T09:27:22.932Z,28.16
2022-08-02T09:32:24.843Z,28.14
2022-08-02T09:37:31.448Z,28.44
2022-08-02T09:42:33.810Z,28.53
2022-08-02T09:47:37.105Z,28.43
2022-08-02T09:52:43.705Z,28.39
2022-08-02T09:57:50.301Z,28.56
2022-08-02T10:03:12.340Z,28.65
2022-08-02T10:08:23.902Z,28.56
2022-08-02T10:13:29.726Z,28.50
2022-08-02T10:18:40.794Z,28.49
2022-08-02T10:23:46.016Z,28.41
2022-08-02T10:28:50.062Z,28.46
2022-08-02T10:33:54.409Z,28.41
2022-08-02T10:38:58.874Z,28.43
2022-08-02T10:44:01.323Z,28.38
2022-08-02T10:54:43.923Z,28.40
2022-08-02T10:59:46.260Z,28.39
2022-08-02T11:04:47.964Z,28.37
2022-08-02T11:09:51.343Z,28.46
2022-08-02T11:15:00.166Z,28.49
2022-08-02T11:20:14.836Z,28.57
2022-08-02T11:25:22.920Z,28.59
2022-08-02T11:30:26.778Z,28.60
2022-08-02T11:35:40.283Z,28.60
2022-08-02T11:40:43.361Z,28.48
2022-08-02T11:45:45.518Z,28.52
2022-08-02T11:50:47.378Z,28.49
2022-08-02T11:55:49.460Z,28.41
2022-08-02T12:00:53.557Z,28.45
2022-08-02T12:06:04.579Z,28.49
2022-08-02T12:11:08.094Z,28.46
2022-08-02T12:16:30.883Z,28.61
2022-08-02T12:21:32.707Z,28.50
2022-08-02T12:26:45.435Z,28.56
2022-08-02T12:31:57.557Z,28.44
2022-08-02T12:37:06.181Z,28.55
2022-08-02T12:42:10.560Z,28.65
2022-08-02T12:47:12.494Z,28.62
2022-08-02T12:52:21.973Z,28.53
2022-08-02T12:57:25.487Z,28.58
2022-08-02T13:02:27.920Z,28.60
2022-08-02T13:07:30.115Z,28.64
2022-08-02T13:12:32.168Z,28.66
2022-08-02T13:17:34.206Z,28.49
2022-08-02T13:22:38.218Z,28.64
2022-08-02T13:27:53.930Z,28.63
2022-08-02T13:33:00.815Z,28.63
2022-08-02T13:38:04.603Z,28.57
2022-08-02T13:43:06.517Z,28.63
2022-08-02T13:48:16.983Z,28.62
2022-08-02T13:53:20.861Z,28.76
2022-08-02T13:58:22.692Z,28.69
2022-08-02T14:03:24.683Z,28.71
2022-08-02T14:08:46.851Z,28.65
2022-08-02T14:13:48.760Z,28.64
2022-08-02T14:18:50.672Z,28.68
2022-08-02T14:23:52.611Z,28.62
2022-08-02T14:28:54.610Z,28.72
2022-08-02T14:33:56.585Z,28.66
2022-08-02T14:38:58.321Z,28.72
2022-08-02T14:44:07.289Z,28.75
2022-08-02T14:49:10.848Z,28.73
2022-08-02T14:54:16.348Z,28.77
2022-08-02T14:59:20.402Z,28.74
2022-08-02T15:04:22.348Z,28.78
2022-08-02T15:09:24.486Z,28.81
2022-08-02T15:14:27.462Z,28.93
2022-08-02T15:19:56.751Z,28.98
2022-08-02T15:24:52.705Z,28.99
2022-08-02T15:30:00.573Z,28.97
2022-08-02T15:35:03.296Z,28.92
2022-08-02T15:40:05.461Z,28.93
2022-08-02T15:45:07.920Z,28.87
2022-08-02T15:50:16.644Z,28.83
2022-08-02T15:55:18.672Z,28.81
2022-08-02T16:00:20.801Z,28.76
2022-08-02T16:05:23.018Z,28.67
2022-08-02T16:10:25.367Z,28.76
2022-08-02T16:15:27.183Z,28.77
2022-08-02T16:20:29.095Z,28.75
2022-08-02T16:25:30.843Z,28.80
2022-08-02T16:30:32.600Z,28.86
2022-08-02T16:35:35.216Z,28.71
2022-08-02T16:40:37.142Z,28.81
2022-08-02T16:45:39.045Z,28.76
2022-08-02T16:50:40.911Z,28.81
2022-08-02T16:55:51.958Z,28.81
2022-08-02T17:00:55.260Z,28.85
2022-08-02T17:05:57.330Z,28.78
2022-08-02T17:11:03.654Z,28.76
2022-08-02T17:16:25.819Z,28.77
2022-08-02T17:21:28.550Z,28.84
2022-08-02T17:26:30.589Z,28.81
2022-08-02T17:31:37.261Z,28.77
2022-08-02T17:36:49.570Z,28.72
2022-08-02T17:41:52.338Z,28.82
2022-08-02T17:46:54.311Z,28.83
2022-08-02T17:52:49.023Z,28.73
2022-08-02T17:57:19.482Z,28.78
2022-08-02T18:02:21.294Z,28.85
2022-08-02T18:07:25.189Z,28.92
2022-08-02T18:12:27.780Z,28.83
2022-08-02T18:17:29.712Z,28.93
2022-08-02T18:22:31.757Z,28.85
2022-08-02T18:27:33.761Z,28.88
2022-08-02T18:33:59.675Z,28.87
2022-08-02T18:38:03.507Z,28.87
2022-08-02T18:43:07.112Z,28.86
2022-08-02T18:48:09.662Z,28.94
2022-08-02T18:53:11.444Z,29.01
2022-08-02T18:58:20.215Z,28.82
2022-08-02T19:03:22.788Z,28.78
2022-08-02T19:08:26.207Z,28.83
2022-08-02T19:13:28.615Z,28.84
2022-08-02T19:18:30.504Z,28.84
2022-08-02T19:23:34.470Z,28.87
2022-08-02T19:28:36.374Z,28.74
2022-08-02T19:34:05.804Z,28.71
2022-08-02T19:38:59.950Z,28.64
2022-08-02T19:44:25.303Z,28.74
2022-08-02T19:49:39.690Z,28.71
2022-08-02T19:54:56.070Z,28.67
2022-08-02T19:59:59.065Z,28.74
2022-08-02T20:05:00.970Z,28.65
2022-08-02T20:10:10.955Z,28.68
2022-08-02T20:15:14.832Z,28.67
2022-08-02T20:20:18.067Z,28.72
2022-08-02T20:25:20.624Z,28.67
2022-08-02T20:30:25.523Z,28.73
2022-08-02T20:35:27.986Z,28.75
2022-08-02T20:40:30.076Z,28.66
2022-08-02T20:45:33.581Z,28.69
2022-08-02T20:50:54.360Z,28.68
2022-08-02T20:55:56.495Z,28.69
2022-08-02T21:01:00.907Z,28.60
2022-08-02T21:06:02.929Z,28.61
2022-08-02T21:16:28.618Z,28.66
2022-08-02T21:21:31.036Z,28.66
2022-08-02T21:26:33.102Z,28.68
2022-08-02T21:31:35.850Z,28.72
2022-08-02T21:36:38.532Z,28.70
2022-08-02T21:41:46.168Z,28.66
2022-08-02T21:46:51.735Z,28.68
2022-08-02T21:51:54.740Z,28.65
2022-08-02T21:56:56.790Z,28.66
2022-08-02T22:02:00.837Z,28.62
2022-08-02T22:07:03.073Z,28.64
2022-08-02T22:12:10.156Z,28.68
2022-08-02T22:17:15.235Z,28.62
2022-08-02T22:22:17.817Z,28.66
2022-08-02T22:27:20.304Z,28.67
2022-08-02T22:32:40.651Z,28.70
2022-08-02T22:38:15.413Z,28.66
2022-08-02T22:43:05.404Z,28.73
2022-08-02T22:48:07.482Z,28.64
2022-08-02T22:53:09.313Z,28.68
2022-08-02T22:58:12.120Z,28.66
2022-08-02T22:59:02.070Z,28.64
2022-08-02T23:03:15.176Z,28.71
2022-08-02T23:08:17.527Z,28.69
2022-08-02T23:13:19.634Z,28.67
2022-08-02T23:18:40.434Z,28.69
2022-08-02T23:23:42.254Z,28.65
2022-08-02T23:28:44.243Z,28.71
2022-08-02T23:34:03.649Z,28.73
2022-08-02T23:39:06.813Z,28.74
2022-08-02T23:44:13.909Z,28.77
2022-08-02T23:49:17.037Z,28.71
2022-08-02T23:54:20.244Z,28.76
2022-08-02T23:59:22.316Z,28.73
